sensor_id;sensor_type;location;lat;lon;timestamp;P1;durP1;ratioP1;P2;durP2;ratioP2
71648;SDS011;59492;45.638;11.714;2022-11-20T00:03:35;5.60;;;4.80;;
71648;SDS011;59492;45.638;11.714;2022-11-20T00:06:01;7.00;;;4.80;;
71648;SDS011;59492;45.638;11.714;2022-11-20T00:08:28;6.80;;;4.70;;
71648;SDS011;59492;45.638;11.714;2022-11-20T00:10:54;7.40;;;5.00;;
71648;SDS011;59492;45.638;11.714;2022-11-20T00:13:20;7.80;;;4.80;;
71648;SDS011;59492;45.638;11.714;2022-11-20T00:15:45;5.80;;;4.40;;
71648;SDS011;59492;45.638;11.714;2022-11-20T00:18:11;5.80;;;4.50;;
71648;SDS011;59492;45.638;11.714;2022-11-20T00:20:36;5.20;;;4.30;;
71648;SDS011;59492;45.638;11.714;2022-11-20T00:23:02;5.80;;;4.60;;
71648;SDS011;59492;45.638;11.714;2022-11-20T00:25:27;6.00;;;4.50;;
71648;SDS011;59492;45.638;11.714;2022-11-20T00:27:53;5.30;;;4.60;;
71648;SDS011;59492;45.638;11.714;2022-11-20T00:30:18;5.40;;;4.40;;
71648;SDS011;59492;45.638;11.714;2022-11-20T00:32:44;6.30;;;5.10;;
71648;SDS011;59492;45.638;11.714;2022-11-20T00:35:09;6.10;;;4.80;;
71648;SDS011;59492;45.638;11.714;2022-11-20T00:37:35;6.20;;;4.70;;
71648;SDS011;59492;45.638;11.714;2022-11-20T00:40:00;6.30;;;4.00;;
71648;SDS011;59492;45.638;11.714;2022-11-20T00:42:26;5.50;;;4.70;;
71648;SDS011;59492;45.638;11.714;2022-11-20T00:44:51;5.30;;;4.60;;
71648;SDS011;59492;45.638;11.714;2022-11-20T00:47:17;5.80;;;4.40;;
71648;SDS011;59492;45.638;11.714;2022-11-20T00:49:43;5.90;;;4.50;;
71648;SDS011;59492;45.638;11.714;2022-11-20T00:52:08;5.90;;;4.70;;
71648;SDS011;59492;45.638;11.714;2022-11-20T00:54:34;7.30;;;5.00;;
71648;SDS011;59492;45.638;11.714;2022-11-20T00:57:00;5.30;;;4.60;;
71648;SDS011;59492;45.638;11.714;2022-11-20T00:59:25;5.10;;;4.20;;
71648;SDS011;59492;45.638;11.714;2022-11-20T01:01:51;4.90;;;4.30;;
71648;SDS011;59492;45.638;11.714;2022-11-20T01:04:16;5.30;;;4.30;;
71648;SDS011;59492;45.638;11.714;2022-11-20T01:06:42;5.20;;;4.30;;
71648;SDS011;59492;45.638;11.714;2022-11-20T01:09:10;4.80;;;4.30;;
71648;SDS011;59492;45.638;11.714;2022-11-20T01:11:38;5.70;;;4.40;;
71648;SDS011;59492;45.638;11.714;2022-11-20T01:14:07;5.30;;;4.70;;
71648;SDS011;59492;45.638;11.714;2022-11-20T01:16:36;5.00;;;4.40;;
71648;SDS011;59492;45.638;11.714;2022-11-20T01:19:04;6.00;;;4.60;;
71648;SDS011;59492;45.638;11.714;2022-11-20T01:21:36;5.00;;;4.40;;
71648;SDS011;59492;45.638;11.714;2022-11-20T01:24:04;6.60;;;4.50;;
71648;SDS011;59492;45.638;11.714;2022-11-20T01:26:33;5.40;;;4.00;;
71648;SDS011;59492;45.638;11.714;2022-11-20T01:29:03;5.60;;;4.20;;
71648;SDS011;59492;45.638;11.714;2022-11-20T01:31:30;5.70;;;4.50;;
71648;SDS011;59492;45.638;11.714;2022-11-20T01:33:59;5.50;;;4.60;;
71648;SDS011;59492;45.638;11.714;2022-11-20T01:36:28;5.00;;;4.30;;
71648;SDS011;59492;45.638;11.714;2022-11-20T01:38:56;5.40;;;4.70;;
71648;SDS011;59492;45.638;11.714;2022-11-20T01:41:24;6.40;;;5.00;;
71648;SDS011;59492;45.638;11.714;2022-11-20T01:44:10;4.80;;;4.20;;
71648;SDS011;59492;45.638;11.714;2022-11-20T01:46:42;4.40;;;4.00;;
71648;SDS011;59492;45.638;11.714;2022-11-20T01:49:34;4.20;;;3.60;;
71648;SDS011;59492;45.638;11.714;2022-11-20T01:52:04;5.30;;;4.10;;
71648;SDS011;59492;45.638;11.714;2022-11-20T01:54:36;5.30;;;4.20;;
71648;SDS011;59492;45.638;11.714;2022-11-20T01:57:06;5.80;;;4.40;;
71648;SDS011;59492;45.638;11.714;2022-11-20T01:59:35;5.70;;;4.60;;
71648;SDS011;59492;45.638;11.714;2022-11-20T02:02:06;4.80;;;4.10;;
71648;SDS011;59492;45.638;11.714;2022-11-20T02:04:31;7.30;;;4.70;;
71648;SDS011;59492;45.638;11.714;2022-11-20T02:06:59;5.10;;;4.10;;
71648;SDS011;59492;45.638;11.714;2022-11-20T02:09:26;5.70;;;4.00;;
71648;SDS011;59492;45.638;11.714;2022-11-20T02:11:52;5.10;;;4.10;;
71648;SDS011;59492;45.638;11.714;2022-11-20T02:14:19;6.00;;;4.20;;
71648;SDS011;59492;45.638;11.714;2022-11-20T02:16:46;5.60;;;4.00;;
71648;SDS011;59492;45.638;11.714;2022-11-20T02:19:34;5.80;;;4.40;;
71648;SDS011;59492;45.638;11.714;2022-11-20T02:22:04;4.30;;;3.90;;
71648;SDS011;59492;45.638;11.714;2022-11-20T02:24:37;4.70;;;3.90;;
71648;SDS011;59492;45.638;11.714;2022-11-20T02:27:04;5.50;;;4.10;;
71648;SDS011;59492;45.638;11.714;2022-11-20T02:29:36;5.10;;;4.00;;
71648;SDS011;59492;45.638;11.714;2022-11-20T02:32:24;4.70;;;3.90;;
71648;SDS011;59492;45.638;11.714;2022-11-20T02:34:55;4.90;;;3.60;;
71648;SDS011;59492;45.638;11.714;2022-11-20T02:37:22;4.90;;;3.50;;
71648;SDS011;59492;45.638;11.714;2022-11-20T02:39:49;4.30;;;3.80;;
71648;SDS011;59492;45.638;11.714;2022-11-20T02:42:16;5.00;;;4.20;;
71648;SDS011;59492;45.638;11.714;2022-11-20T02:44:42;4.70;;;3.90;;
71648;SDS011;59492;45.638;11.714;2022-11-20T02:47:07;5.00;;;4.00;;
71648;SDS011;59492;45.638;11.714;2022-11-20T02:49:33;5.30;;;4.00;;
71648;SDS011;59492;45.638;11.714;2022-11-20T02:51:59;6.50;;;4.00;;
71648;SDS011;59492;45.638;11.714;2022-11-20T02:54:25;4.70;;;3.80;;
71648;SDS011;59492;45.638;11.714;2022-11-20T02:56:51;4.60;;;3.60;;
71648;SDS011;59492;45.638;11.714;2022-11-20T02:59:17;4.30;;;3.50;;
71648;SDS011;59492;45.638;11.714;2022-11-20T03:01:42;5.40;;;4.30;;
71648;SDS011;59492;45.638;11.714;2022-11-20T03:04:08;4.80;;;4.10;;
71648;SDS011;59492;45.638;11.714;2022-11-20T03:06:33;4.40;;;3.80;;
71648;SDS011;59492;45.638;11.714;2022-11-20T03:08:59;4.70;;;3.90;;
71648;SDS011;59492;45.638;11.714;2022-11-20T03:11:24;4.50;;;3.80;;
71648;SDS011;59492;45.638;11.714;2022-11-20T03:13:50;4.60;;;4.10;;
71648;SDS011;59492;45.638;11.714;2022-11-20T03:16:16;4.90;;;4.00;;
71648;SDS011;59492;45.638;11.714;2022-11-20T03:18:44;3.90;;;3.50;;
71648;SDS011;59492;45.638;11.714;2022-11-20T03:21:11;4.50;;;3.70;;
71648;SDS011;59492;45.638;11.714;2022-11-20T03:23:38;4.20;;;3.50;;
71648;SDS011;59492;45.638;11.714;2022-11-20T03:26:09;4.50;;;3.40;;
71648;SDS011;59492;45.638;11.714;2022-11-20T03:28:36;4.30;;;3.80;;
71648;SDS011;59492;45.638;11.714;2022-11-20T03:31:06;5.30;;;4.00;;
71648;SDS011;59492;45.638;11.714;2022-11-20T03:33:33;4.60;;;3.70;;
71648;SDS011;59492;45.638;11.714;2022-11-20T03:36:02;3.70;;;3.30;;
71648;SDS011;59492;45.638;11.714;2022-11-20T03:38:29;4.90;;;3.80;;
71648;SDS011;59492;45.638;11.714;2022-11-20T03:41:02;6.10;;;3.70;;
71648;SDS011;59492;45.638;11.714;2022-11-20T03:43:38;4.40;;;3.80;;
71648;SDS011;59492;45.638;11.714;2022-11-20T03:46:05;4.30;;;3.50;;
71648;SDS011;59492;45.638;11.714;2022-11-20T03:48:31;4.20;;;3.50;;
71648;SDS011;59492;45.638;11.714;2022-11-20T03:51:07;3.80;;;3.30;;
71648;SDS011;59492;45.638;11.714;2022-11-20T03:53:32;5.00;;;3.60;;
71648;SDS011;59492;45.638;11.714;2022-11-20T03:55:58;4.30;;;3.60;;
71648;SDS011;59492;45.638;11.714;2022-11-20T03:58:24;5.30;;;3.60;;
71648;SDS011;59492;45.638;11.714;2022-11-20T04:00:49;4.80;;;3.80;;
71648;SDS011;59492;45.638;11.714;2022-11-20T04:03:15;3.70;;;3.10;;
71648;SDS011;59492;45.638;11.714;2022-11-20T04:05:40;4.40;;;3.60;;
71648;SDS011;59492;45.638;11.714;2022-11-20T04:08:06;4.40;;;3.50;;
71648;SDS011;59492;45.638;11.714;2022-11-20T04:10:31;3.60;;;3.20;;
71648;SDS011;59492;45.638;11.714;2022-11-20T04:12:57;3.50;;;3.10;;
71648;SDS011;59492;45.638;11.714;2022-11-20T04:15:22;3.60;;;3.00;;
71648;SDS011;59492;45.638;11.714;2022-11-20T04:17:48;3.90;;;3.50;;
71648;SDS011;59492;45.638;11.714;2022-11-20T04:20:13;5.00;;;3.30;;
71648;SDS011;59492;45.638;11.714;2022-11-20T04:22:39;3.70;;;3.30;;
71648;SDS011;59492;45.638;11.714;2022-11-20T04:25:05;4.30;;;3.30;;
71648;SDS011;59492;45.638;11.714;2022-11-20T04:27:31;3.60;;;3.00;;
71648;SDS011;59492;45.638;11.714;2022-11-20T04:29:56;4.70;;;3.60;;
71648;SDS011;59492;45.638;11.714;2022-11-20T04:32:22;4.90;;;3.40;;
71648;SDS011;59492;45.638;11.714;2022-11-20T04:34:47;3.30;;;3.00;;
71648;SDS011;59492;45.638;11.714;2022-11-20T04:37:13;3.70;;;3.00;;
71648;SDS011;59492;45.638;11.714;2022-11-20T04:39:39;4.30;;;3.40;;
71648;SDS011;59492;45.638;11.714;2022-11-20T04:42:04;4.20;;;3.40;;
71648;SDS011;59492;45.638;11.714;2022-11-20T04:44:50;3.50;;;3.20;;
71648;SDS011;59492;45.638;11.714;2022-11-20T04:47:16;5.00;;;3.50;;
71648;SDS011;59492;45.638;11.714;2022-11-20T04:49:41;4.10;;;3.50;;
71648;SDS011;59492;45.638;11.714;2022-11-20T04:52:07;3.40;;;3.10;;
71648;SDS011;59492;45.638;11.714;2022-11-20T04:54:32;4.40;;;3.30;;
71648;SDS011;59492;45.638;11.714;2022-11-20T04:56:58;8.20;;;3.50;;
71648;SDS011;59492;45.638;11.714;2022-11-20T04:59:23;5.30;;;3.10;;
71648;SDS011;59492;45.638;11.714;2022-11-20T05:01:49;3.20;;;2.90;;
71648;SDS011;59492;45.638;11.714;2022-11-20T05:04:14;3.40;;;3.10;;
71648;SDS011;59492;45.638;11.714;2022-11-20T05:06:40;3.80;;;3.40;;
71648;SDS011;59492;45.638;11.714;2022-11-20T05:09:05;4.60;;;3.30;;
71648;SDS011;59492;45.638;11.714;2022-11-20T05:11:31;3.90;;;3.30;;
71648;SDS011;59492;45.638;11.714;2022-11-20T05:13:57;4.20;;;3.60;;
71648;SDS011;59492;45.638;11.714;2022-11-20T05:16:24;4.70;;;3.40;;
71648;SDS011;59492;45.638;11.714;2022-11-20T05:18:51;3.40;;;3.10;;
71648;SDS011;59492;45.638;11.714;2022-11-20T05:21:17;3.70;;;3.00;;
71648;SDS011;59492;45.638;11.714;2022-11-20T05:23:44;3.80;;;2.80;;
71648;SDS011;59492;45.638;11.714;2022-11-20T05:26:14;3.40;;;2.60;;
71648;SDS011;59492;45.638;11.714;2022-11-20T05:28:42;3.50;;;3.00;;
71648;SDS011;59492;45.638;11.714;2022-11-20T05:31:10;3.00;;;2.70;;
71648;SDS011;59492;45.638;11.714;2022-11-20T05:33:39;3.20;;;2.90;;
71648;SDS011;59492;45.638;11.714;2022-11-20T05:36:07;3.40;;;3.10;;
71648;SDS011;59492;45.638;11.714;2022-11-20T05:38:33;4.90;;;3.00;;
71648;SDS011;59492;45.638;11.714;2022-11-20T05:43:37;4.00;;;3.30;;
71648;SDS011;59492;45.638;11.714;2022-11-20T05:46:04;4.10;;;3.30;;
71648;SDS011;59492;45.638;11.714;2022-11-20T05:48:31;3.50;;;3.10;;
71648;SDS011;59492;45.638;11.714;2022-11-20T05:50:57;4.10;;;2.80;;
71648;SDS011;59492;45.638;11.714;2022-11-20T05:53:24;4.40;;;3.00;;
71648;SDS011;59492;45.638;11.714;2022-11-20T05:56:00;3.50;;;3.10;;
71648;SDS011;59492;45.638;11.714;2022-11-20T05:58:27;4.20;;;3.30;;
71648;SDS011;59492;45.638;11.714;2022-11-20T06:00:53;4.10;;;3.20;;
71648;SDS011;59492;45.638;11.714;2022-11-20T06:03:19;3.60;;;3.20;;
71648;SDS011;59492;45.638;11.714;2022-11-20T06:05:45;4.20;;;2.90;;
71648;SDS011;59492;45.638;11.714;2022-11-20T06:08:11;5.20;;;3.10;;
71648;SDS011;59492;45.638;11.714;2022-11-20T06:10:37;4.70;;;3.20;;
71648;SDS011;59492;45.638;11.714;2022-11-20T06:13:02;4.10;;;3.10;;
71648;SDS011;59492;45.638;11.714;2022-11-20T06:15:28;3.20;;;2.90;;
71648;SDS011;59492;45.638;11.714;2022-11-20T06:17:54;3.30;;;2.70;;
71648;SDS011;59492;45.638;11.714;2022-11-20T06:20:24;5.10;;;3.00;;
71648;SDS011;59492;45.638;11.714;2022-11-20T06:22:50;3.70;;;3.20;;
71648;SDS011;59492;45.638;11.714;2022-11-20T06:25:17;3.30;;;2.90;;
71648;SDS011;59492;45.638;11.714;2022-11-20T06:27:43;4.40;;;3.40;;
71648;SDS011;59492;45.638;11.714;2022-11-20T06:30:09;3.70;;;3.30;;
71648;SDS011;59492;45.638;11.714;2022-11-20T06:32:35;3.50;;;3.10;;
71648;SDS011;59492;45.638;11.714;2022-11-20T06:35:01;3.80;;;3.20;;
71648;SDS011;59492;45.638;11.714;2022-11-20T06:37:27;3.70;;;3.10;;
71648;SDS011;59492;45.638;11.714;2022-11-20T06:39:52;3.20;;;2.70;;
71648;SDS011;59492;45.638;11.714;2022-11-20T06:42:18;3.00;;;2.70;;
71648;SDS011;59492;45.638;11.714;2022-11-20T06:44:44;3.20;;;2.90;;
71648;SDS011;59492;45.638;11.714;2022-11-20T06:47:09;3.70;;;3.00;;
71648;SDS011;59492;45.638;11.714;2022-11-20T06:49:36;3.70;;;3.30;;
71648;SDS011;59492;45.638;11.714;2022-11-20T06:52:04;4.60;;;3.20;;
71648;SDS011;59492;45.638;11.714;2022-11-20T06:54:30;4.90;;;3.00;;
71648;SDS011;59492;45.638;11.714;2022-11-20T06:56:56;3.90;;;3.10;;
71648;SDS011;59492;45.638;11.714;2022-11-20T06:59:24;4.10;;;3.20;;
71648;SDS011;59492;45.638;11.714;2022-11-20T07:01:56;4.20;;;3.10;;
71648;SDS011;59492;45.638;11.714;2022-11-20T07:04:25;3.30;;;2.90;;
71648;SDS011;59492;45.638;11.714;2022-11-20T07:06:51;3.20;;;2.90;;
71648;SDS011;59492;45.638;11.714;2022-11-20T07:09:17;3.60;;;2.80;;
71648;SDS011;59492;45.638;11.714;2022-11-20T07:11:42;3.10;;;2.80;;
71648;SDS011;59492;45.638;11.714;2022-11-20T07:14:09;3.90;;;2.90;;
71648;SDS011;59492;45.638;11.714;2022-11-20T07:16:35;3.90;;;3.20;;
71648;SDS011;59492;45.638;11.714;2022-11-20T07:19:01;3.20;;;2.60;;
71648;SDS011;59492;45.638;11.714;2022-11-20T07:21:30;5.90;;;3.60;;
71648;SDS011;59492;45.638;11.714;2022-11-20T07:23:56;4.40;;;3.20;;
71648;SDS011;59492;45.638;11.714;2022-11-20T07:26:23;5.60;;;3.30;;
71648;SDS011;59492;45.638;11.714;2022-11-20T07:29:01;4.50;;;3.20;;
71648;SDS011;59492;45.638;11.714;2022-11-20T07:31:28;3.50;;;3.10;;
71648;SDS011;59492;45.638;11.714;2022-11-20T07:33:54;4.00;;;2.80;;
71648;SDS011;59492;45.638;11.714;2022-11-20T07:36:20;6.00;;;2.60;;
71648;SDS011;59492;45.638;11.714;2022-11-20T07:38:47;2.60;;;2.40;;
71648;SDS011;59492;45.638;11.714;2022-11-20T07:41:13;3.90;;;2.90;;
71648;SDS011;59492;45.638;11.714;2022-11-20T07:43:40;4.20;;;3.00;;
71648;SDS011;59492;45.638;11.714;2022-11-20T07:46:05;4.20;;;3.00;;
71648;SDS011;59492;45.638;11.714;2022-11-20T07:48:31;3.70;;;3.00;;
71648;SDS011;59492;45.638;11.714;2022-11-20T07:50:57;3.60;;;2.80;;
71648;SDS011;59492;45.638;11.714;2022-11-20T07:53:23;4.20;;;3.00;;
71648;SDS011;59492;45.638;11.714;2022-11-20T07:55:50;4.50;;;3.30;;
71648;SDS011;59492;45.638;11.714;2022-11-20T07:58:18;5.50;;;3.30;;
71648;SDS011;59492;45.638;11.714;2022-11-20T08:00:45;3.50;;;2.90;;
71648;SDS011;59492;45.638;11.714;2022-11-20T08:03:11;3.80;;;3.10;;
71648;SDS011;59492;45.638;11.714;2022-11-20T08:05:37;4.70;;;3.40;;
71648;SDS011;59492;45.638;11.714;2022-11-20T08:08:02;4.30;;;3.00;;
71648;SDS011;59492;45.638;11.714;2022-11-20T08:10:28;6.60;;;3.10;;
71648;SDS011;59492;45.638;11.714;2022-11-20T08:12:54;6.20;;;2.90;;
71648;SDS011;59492;45.638;11.714;2022-11-20T08:15:39;3.90;;;3.00;;
71648;SDS011;59492;45.638;11.714;2022-11-20T08:18:06;3.90;;;3.20;;
71648;SDS011;59492;45.638;11.714;2022-11-20T08:20:36;16.80;;;3.80;;
71648;SDS011;59492;45.638;11.714;2022-11-20T08:23:04;6.10;;;3.20;;
71648;SDS011;59492;45.638;11.714;2022-11-20T08:25:31;3.90;;;3.00;;
71648;SDS011;59492;45.638;11.714;2022-11-20T08:28:03;5.00;;;3.10;;
71648;SDS011;59492;45.638;11.714;2022-11-20T08:30:31;5.20;;;3.20;;
71648;SDS011;59492;45.638;11.714;2022-11-20T08:33:01;6.80;;;3.30;;
71648;SDS011;59492;45.638;11.714;2022-11-20T08:35:35;11.30;;;3.40;;
71648;SDS011;59492;45.638;11.714;2022-11-20T08:38:03;4.90;;;3.20;;
71648;SDS011;59492;45.638;11.714;2022-11-20T08:40:31;5.80;;;3.40;;
71648;SDS011;59492;45.638;11.714;2022-11-20T08:42:57;8.90;;;3.30;;
71648;SDS011;59492;45.638;11.714;2022-11-20T08:45:23;5.50;;;3.30;;
71648;SDS011;59492;45.638;11.714;2022-11-20T08:47:50;9.20;;;4.00;;
71648;SDS011;59492;45.638;11.714;2022-11-20T08:50:16;5.90;;;3.20;;
71648;SDS011;59492;45.638;11.714;2022-11-20T08:52:42;5.60;;;3.10;;
71648;SDS011;59492;45.638;11.714;2022-11-20T08:55:08;5.20;;;2.90;;
71648;SDS011;59492;45.638;11.714;2022-11-20T08:57:34;5.20;;;3.20;;
71648;SDS011;59492;45.638;11.714;2022-11-20T09:00:01;11.70;;;3.30;;
71648;SDS011;59492;45.638;11.714;2022-11-20T09:02:28;9.40;;;3.40;;
71648;SDS011;59492;45.638;11.714;2022-11-20T09:04:53;7.50;;;3.40;;
71648;SDS011;59492;45.638;11.714;2022-11-20T09:07:19;12.80;;;3.60;;
71648;SDS011;59492;45.638;11.714;2022-11-20T09:55:20;14.00;;;4.00;;
71648;SDS011;59492;45.638;11.714;2022-11-20T09:57:47;16.40;;;3.80;;
71648;SDS011;59492;45.638;11.714;2022-11-20T10:00:14;12.70;;;4.10;;
71648;SDS011;59492;45.638;11.714;2022-11-20T10:08:25;17.70;;;3.80;;
71648;SDS011;59492;45.638;11.714;2022-11-20T10:11:03;7.40;;;3.50;;
71648;SDS011;59492;45.638;11.714;2022-11-20T10:17:12;9.90;;;3.70;;
71648;SDS011;59492;45.638;11.714;2022-11-20T10:19:22;12.50;;;3.50;;
71648;SDS011;59492;45.638;11.714;2022-11-20T10:22:00;10.10;;;3.50;;
71648;SDS011;59492;45.638;11.714;2022-11-20T10:27:22;14.00;;;3.50;;
71648;SDS011;59492;45.638;11.714;2022-11-20T10:30:12;9.00;;;3.80;;
71648;SDS011;59492;45.638;11.714;2022-11-20T10:32:43;9.50;;;3.70;;
71648;SDS011;59492;45.638;11.714;2022-11-20T10:35:18;21.20;;;4.00;;
71648;SDS011;59492;45.638;11.714;2022-11-20T10:37:52;10.50;;;3.70;;
71648;SDS011;59492;45.638;11.714;2022-11-20T10:42:59;14.50;;;3.90;;
71648;SDS011;59492;45.638;11.714;2022-11-20T10:46:03;11.10;;;3.20;;
71648;SDS011;59492;45.638;11.714;2022-11-20T10:48:33;12.30;;;3.40;;
71648;SDS011;59492;45.638;11.714;2022-11-20T10:56:48;12.70;;;3.20;;
71648;SDS011;59492;45.638;11.714;2022-11-20T10:59:25;9.50;;;3.70;;
71648;SDS011;59492;45.638;11.714;2022-11-20T11:01:53;7.20;;;3.50;;
71648;SDS011;59492;45.638;11.714;2022-11-20T11:09:58;11.30;;;3.30;;
71648;SDS011;59492;45.638;11.714;2022-11-20T11:12:25;6.40;;;3.10;;
71648;SDS011;59492;45.638;11.714;2022-11-20T11:14:55;5.70;;;3.10;;
71648;SDS011;59492;45.638;11.714;2022-11-20T11:17:31;9.30;;;3.40;;
71648;SDS011;59492;45.638;11.714;2022-11-20T11:20:04;4.90;;;3.00;;
71648;SDS011;59492;45.638;11.714;2022-11-20T11:22:46;8.30;;;3.20;;
71648;SDS011;59492;45.638;11.714;2022-11-20T11:25:23;7.10;;;2.90;;
71648;SDS011;59492;45.638;11.714;2022-11-20T11:28:02;10.90;;;3.30;;
71648;SDS011;59492;45.638;11.714;2022-11-20T11:30:40;5.30;;;2.70;;
71648;SDS011;59492;45.638;11.714;2022-11-20T11:33:11;10.10;;;3.20;;
71648;SDS011;59492;45.638;11.714;2022-11-20T11:35:47;6.60;;;2.90;;
71648;SDS011;59492;45.638;11.714;2022-11-20T11:38:39;5.10;;;2.60;;
71648;SDS011;59492;45.638;11.714;2022-11-20T11:41:19;9.30;;;3.20;;
71648;SDS011;59492;45.638;11.714;2022-11-20T11:43:52;7.50;;;2.80;;
71648;SDS011;59492;45.638;11.714;2022-11-20T11:46:49;7.40;;;3.00;;
71648;SDS011;59492;45.638;11.714;2022-11-20T11:49:19;6.30;;;3.20;;
71648;SDS011;59492;45.638;11.714;2022-11-20T11:54:53;13.70;;;3.40;;
71648;SDS011;59492;45.638;11.714;2022-11-20T11:57:26;10.00;;;2.80;;
71648;SDS011;59492;45.638;11.714;2022-11-20T12:00:09;5.10;;;2.70;;
71648;SDS011;59492;45.638;11.714;2022-11-20T12:05:29;7.40;;;2.40;;
71648;SDS011;59492;45.638;11.714;2022-11-20T12:15:58;3.30;;;2.20;;
71648;SDS011;59492;45.638;11.714;2022-11-20T12:18:24;3.60;;;2.00;;
71648;SDS011;59492;45.638;11.714;2022-11-20T12:20:57;6.10;;;2.30;;
71648;SDS011;59492;45.638;11.714;2022-11-20T12:26:45;4.00;;;2.50;;
71648;SDS011;59492;45.638;11.714;2022-11-20T12:34:47;7.00;;;2.50;;
71648;SDS011;59492;45.638;11.714;2022-11-20T12:37:21;14.60;;;2.70;;
71648;SDS011;59492;45.638;11.714;2022-11-20T12:40:34;7.60;;;2.90;;
71648;SDS011;59492;45.638;11.714;2022-11-20T12:49:22;14.30;;;2.80;;
71648;SDS011;59492;45.638;11.714;2022-11-20T12:55:03;9.70;;;2.50;;
71648;SDS011;59492;45.638;11.714;2022-11-20T13:00:25;10.80;;;2.60;;
71648;SDS011;59492;45.638;11.714;2022-11-20T13:08:53;22.20;;;2.90;;
71648;SDS011;59492;45.638;11.714;2022-11-20T13:16:33;16.40;;;2.90;;
71648;SDS011;59492;45.638;11.714;2022-11-20T13:19:04;9.00;;;3.60;;
71648;SDS011;59492;45.638;11.714;2022-11-20T13:21:41;16.20;;;2.30;;
71648;SDS011;59492;45.638;11.714;2022-11-20T13:24:24;10.70;;;2.50;;
71648;SDS011;59492;45.638;11.714;2022-11-20T13:27:17;16.00;;;3.00;;
71648;SDS011;59492;45.638;11.714;2022-11-20T13:30:00;10.00;;;2.70;;
71648;SDS011;59492;45.638;11.714;2022-11-20T13:32:47;8.70;;;2.40;;
71648;SDS011;59492;45.638;11.714;2022-11-20T13:35:23;8.70;;;2.90;;
71648;SDS011;59492;45.638;11.714;2022-11-20T13:40:36;11.20;;;2.80;;
71648;SDS011;59492;45.638;11.714;2022-11-20T13:43:34;10.10;;;2.40;;
71648;SDS011;59492;45.638;11.714;2022-11-20T13:46:03;8.00;;;2.60;;
71648;SDS011;59492;45.638;11.714;2022-11-20T13:48:32;8.10;;;2.60;;
71648;SDS011;59492;45.638;11.714;2022-11-20T13:57:14;9.40;;;2.60;;
71648;SDS011;59492;45.638;11.714;2022-11-20T14:02:29;14.70;;;2.50;;
71648;SDS011;59492;45.638;11.714;2022-11-20T14:04:58;9.20;;;2.60;;
71648;SDS011;59492;45.638;11.714;2022-11-20T14:07:35;9.80;;;2.50;;
71648;SDS011;59492;45.638;11.714;2022-11-20T14:10:05;9.70;;;2.50;;
71648;SDS011;59492;45.638;11.714;2022-11-20T14:12:32;10.10;;;2.70;;
71648;SDS011;59492;45.638;11.714;2022-11-20T14:14:59;8.10;;;2.80;;
71648;SDS011;59492;45.638;11.714;2022-11-20T14:17:32;9.50;;;2.80;;
71648;SDS011;59492;45.638;11.714;2022-11-20T14:20:04;9.00;;;2.60;;
71648;SDS011;59492;45.638;11.714;2022-11-20T14:22:32;9.30;;;2.80;;
71648;SDS011;59492;45.638;11.714;2022-11-20T14:25:02;6.10;;;2.30;;
71648;SDS011;59492;45.638;11.714;2022-11-20T14:27:43;10.20;;;2.70;;
71648;SDS011;59492;45.638;11.714;2022-11-20T14:30:14;5.60;;;2.00;;
71648;SDS011;59492;45.638;11.714;2022-11-20T14:32:43;11.40;;;2.50;;
71648;SDS011;59492;45.638;11.714;2022-11-20T14:35:34;7.60;;;2.50;;
71648;SDS011;59492;45.638;11.714;2022-11-20T14:38:03;9.80;;;2.60;;
71648;SDS011;59492;45.638;11.714;2022-11-20T14:40:29;6.80;;;2.60;;
71648;SDS011;59492;45.638;11.714;2022-11-20T14:43:01;5.60;;;2.10;;
71648;SDS011;59492;45.638;11.714;2022-11-20T14:45:30;6.70;;;2.60;;
71648;SDS011;59492;45.638;11.714;2022-11-20T14:47:57;7.50;;;2.80;;
71648;SDS011;59492;45.638;11.714;2022-11-20T14:50:27;7.20;;;3.00;;
71648;SDS011;59492;45.638;11.714;2022-11-20T14:52:59;8.50;;;2.70;;
71648;SDS011;59492;45.638;11.714;2022-11-20T14:55:26;8.10;;;2.70;;
71648;SDS011;59492;45.638;11.714;2022-11-20T14:58:06;8.60;;;2.30;;
71648;SDS011;59492;45.638;11.714;2022-11-20T15:00:58;7.00;;;2.30;;
71648;SDS011;59492;45.638;11.714;2022-11-20T15:03:32;7.10;;;2.50;;
71648;SDS011;59492;45.638;11.714;2022-11-20T15:08:27;7.60;;;2.80;;
71648;SDS011;59492;45.638;11.714;2022-11-20T15:10:53;8.60;;;2.70;;
71648;SDS011;59492;45.638;11.714;2022-11-20T15:13:30;6.40;;;2.50;;
71648;SDS011;59492;45.638;11.714;2022-11-20T15:15:58;6.40;;;2.40;;
71648;SDS011;59492;45.638;11.714;2022-11-20T15:18:59;7.50;;;2.90;;
71648;SDS011;59492;45.638;11.714;2022-11-20T15:21:19;7.50;;;2.60;;
71648;SDS011;59492;45.638;11.714;2022-11-20T15:23:48;6.40;;;2.50;;
71648;SDS011;59492;45.638;11.714;2022-11-20T15:26:19;6.40;;;2.20;;
71648;SDS011;59492;45.638;11.714;2022-11-20T15:28:49;8.30;;;2.50;;
71648;SDS011;59492;45.638;11.714;2022-11-20T15:31:17;5.90;;;2.10;;
71648;SDS011;59492;45.638;11.714;2022-11-20T15:33:44;10.30;;;2.50;;
71648;SDS011;59492;45.638;11.714;2022-11-20T15:36:10;6.00;;;2.30;;
71648;SDS011;59492;45.638;11.714;2022-11-20T15:38:36;6.40;;;2.70;;
71648;SDS011;59492;45.638;11.714;2022-11-20T15:41:02;4.60;;;2.30;;
71648;SDS011;59492;45.638;11.714;2022-11-20T15:43:27;7.00;;;2.30;;
71648;SDS011;59492;45.638;11.714;2022-11-20T15:48:27;7.10;;;2.30;;
71648;SDS011;59492;45.638;11.714;2022-11-20T15:50:57;10.00;;;2.80;;
71648;SDS011;59492;45.638;11.714;2022-11-20T15:53:26;10.30;;;3.90;;
71648;SDS011;59492;45.638;11.714;2022-11-20T15:55:52;9.90;;;4.10;;
71648;SDS011;59492;45.638;11.714;2022-11-20T15:58:18;12.60;;;3.80;;
71648;SDS011;59492;45.638;11.714;2022-11-20T16:00:43;18.50;;;5.20;;
71648;SDS011;59492;45.638;11.714;2022-11-20T16:03:13;17.00;;;5.60;;
71648;SDS011;59492;45.638;11.714;2022-11-20T16:05:39;18.90;;;5.30;;
71648;SDS011;59492;45.638;11.714;2022-11-20T16:08:05;26.30;;;6.20;;
71648;SDS011;59492;45.638;11.714;2022-11-20T16:10:31;14.40;;;5.70;;
71648;SDS011;59492;45.638;11.714;2022-11-20T16:12:56;29.30;;;7.10;;
71648;SDS011;59492;45.638;11.714;2022-11-20T16:15:41;19.80;;;7.30;;
71648;SDS011;59492;45.638;11.714;2022-11-20T16:18:14;18.30;;;7.20;;
71648;SDS011;59492;45.638;11.714;2022-11-20T16:20:45;19.90;;;7.20;;
71648;SDS011;59492;45.638;11.714;2022-11-20T16:23:12;13.20;;;6.60;;
71648;SDS011;59492;45.638;11.714;2022-11-20T16:25:38;19.50;;;7.10;;
71648;SDS011;59492;45.638;11.714;2022-11-20T16:28:04;23.50;;;7.30;;
71648;SDS011;59492;45.638;11.714;2022-11-20T16:30:31;17.70;;;7.30;;
71648;SDS011;59492;45.638;11.714;2022-11-20T16:32:58;21.40;;;7.20;;
71648;SDS011;59492;45.638;11.714;2022-11-20T16:35:25;21.50;;;7.80;;
71648;SDS011;59492;45.638;11.714;2022-11-20T16:37:53;18.90;;;8.20;;
71648;SDS011;59492;45.638;11.714;2022-11-20T16:40:20;19.50;;;8.80;;
71648;SDS011;59492;45.638;11.714;2022-11-20T16:42:48;15.80;;;8.00;;
71648;SDS011;59492;45.638;11.714;2022-11-20T16:45:13;20.00;;;8.40;;
71648;SDS011;59492;45.638;11.714;2022-11-20T16:47:40;20.30;;;8.40;;
71648;SDS011;59492;45.638;11.714;2022-11-20T16:50:06;19.70;;;8.10;;
71648;SDS011;59492;45.638;11.714;2022-11-20T16:52:33;16.10;;;8.00;;
71648;SDS011;59492;45.638;11.714;2022-11-20T16:54:58;13.00;;;7.40;;
71648;SDS011;59492;45.638;11.714;2022-11-20T16:57:26;13.10;;;6.80;;
71648;SDS011;59492;45.638;11.714;2022-11-20T16:59:53;15.40;;;7.00;;
71648;SDS011;59492;45.638;11.714;2022-11-20T17:02:18;14.20;;;6.90;;